Ever Delight — 3FCB8 — position and weather

sailwx.info

Track history (hours):
 
Tides and Currents Weather Stations Pressure Air Temp Water Temp Dewpoint Dewpoint Depression Visibility Wind Speed Wind Dir Waves Ship Positions

Ever Delight

Last reported at 2015-Mar-04 16:06 UTC. Time now 2015-Mar-04 16:54 UTC.
Position N 29°48' E 122°10'.

Type: Cargo ship. MMSI: 351936000.

Date/timePositionNaut miles runAvg speedWind from/ knotsBaromVisibWave heightAir tempDewpointWater temp
2015-Mar-04 16:06N 29°48' E 122°10'0 0.0
2015-Mar-04 15:30N 29°48' E 122°10'0 0.0
2015-Mar-04 13:18N 29°48' E 122°10'0 0.0
2015-Mar-04 10:27N 29°48' E 122°10'0 0.0
2015-Mar-04 09:33N 29°48' E 122°10'0 0.0
2015-Mar-04 06:18N 29°48' E 122°10'0 0.0
2015-Mar-04 01:12N 29°48' E 122°10'0 0.0
2015-Mar-03 21:13N 29°48' E 122°10'0 0.0
2015-Mar-03 16:31N 29°48' E 122°10'0 0.0
2015-Mar-03 11:06N 29°48' E 122°10'0 0.0
2015-Mar-03 10:15N 29°48' E 122°10'0 0.0
2015-Mar-03 09:20N 29°48' E 122°10'0 0.0
2015-Mar-03 08:32N 29°48' E 122°10'0 0.0
2015-Mar-03 07:32N 29°48' E 122°10'0 0.0
2015-Mar-03 06:17N 29°48' E 122°10'0 0.0
2015-Mar-03 05:32N 29°48' E 122°10'0 0.0
2015-Mar-03 04:32N 29°48' E 122°10'0 0.0
2015-Mar-03 03:26N 29°48' E 122°10'0 0.0
2015-Mar-03 02:32N 29°48' E 122°10'0 0.0
2015-Mar-03 01:32N 29°48' E 122°10'0 0.0
2015-Mar-03 00:32N 29°48' E 122°10'0 0.0
2015-Mar-02 23:32N 29°48' E 122°10'0 0.0
2015-Mar-02 22:28N 29°48' E 122°10'0 0.0
2015-Mar-02 21:18N 29°48' E 122°10'0 0.0
2015-Mar-02 20:12N 29°48' E 122°10'0 0.0
2015-Mar-02 19:33N 29°48' E 122°10'0 0.0
2015-Mar-02 16:33N 29°48' E 122°10'2 2.0
2015-Mar-02 15:20N 29°48' E 122°07'0 0.0
2015-Mar-02 12:32N 29°48' E 122°07'0 0.1
2015-Mar-02 10:21N 29°48' E 122°07'0 0.1
2015-Mar-02 09:28N 29°48' E 122°06'0 0.1
2015-Mar-02 08:33N 29°48' E 122°06'7 7.3
2015-Mar-02 07:33N 29°53' E 122°12'0 0.2
2015-Mar-02 06:19N 29°53' E 122°13'0 0.5
2015-Mar-02 05:33N 29°53' E 122°13'9 9.1
2015-Mar-02 04:33N 29°45' E 122°19'1010.4
2015-Mar-02 03:33N 29°42' E 122°30'6 5.7
2015-Mar-02 02:33N 29°43' E 122°24'1110.7
2015-Mar-02 01:33N 29°49' E 122°14'1110.6
2015-Mar-02 00:33N 29°54' E 122°03'1 1.0
2015-Mar-01 23:29N 29°53' E 122°03'0 0.0
2015-Mar-01 22:33N 29°53' E 122°03'0 0.0
2015-Mar-01 21:33N 29°53' E 122°03'0 0.0
2015-Mar-01 20:33N 29°53' E 122°03'0 0.0
2015-Mar-01 19:33N 29°53' E 122°03'0 0.1
2015-Mar-01 18:34N 29°53' E 122°03'0 0.1
2015-Mar-01 17:32N 29°53' E 122°03'0 0.0
2015-Mar-01 16:33N 29°53' E 122°03'0 0.0
2015-Mar-01 15:33N 29°53' E 122°03'0 0.0
2015-Mar-01 14:33N 29°53' E 122°03'0 0.0
2015-Mar-01 13:33N 29°53' E 122°03'0 0.0
2015-Mar-01 12:33N 29°53' E 122°03'0 0.1
2015-Mar-01 11:33N 29°53' E 122°03'0 0.1
2015-Mar-01 10:33N 29°53' E 122°03'3 2.6
2015-Mar-01 09:34N 29°55' E 122°05'1110.6
2015-Mar-01 08:34N 29°48' E 122°15'8 8.1
2015-Mar-01 07:34N 29°44' E 122°23'8 8.1
2015-Mar-01 06:33N 29°42' E 122°32'  
2015-Feb-26 20:26N 35°55' E 120°51'1617.4
2015-Feb-26 19:30N 35°59' E 120°32'1414.3
2015-Feb-26 18:33N 36°02' E 120°16'3 2.8
2015-Feb-26 17:32N 36°01' E 120°13'0 0.0
2015-Feb-26 16:32N 36°01' E 120°13'0 0.0
2015-Feb-26 15:32N 36°01' E 120°13'0 0.0
2015-Feb-26 14:26N 36°01' E 120°13'0 0.0
2015-Feb-26 13:20N 36°01' E 120°13'0 0.0
2015-Feb-26 12:15N 36°01' E 120°13'21 9.7
2015-Feb-26 10:03N 35°58' E 120°39'5 8.6
2015-Feb-26 09:31N 35°57' E 120°44'8917.8
2015-Feb-26 04:33N 36°40' E 122°20'1919.1
2015-Feb-26 03:33N 36°51' E 122°40'1817.6
2015-Feb-26 02:33N 37°07' E 122°48'2019.8
2015-Feb-26 01:32N 37°27' E 122°47'2020.2
2015-Feb-26 00:33N 37°45' E 122°35'7120.7
2015-Feb-25 21:07N 38°49' E 121°56'9 0.6
2015-Feb-25 05:29N 38°58' E 121°56'910.2
2015-Feb-25 04:33N 38°49' E 121°53'1212.2
2015-Feb-25 03:34N 38°38' E 121°46'1413.5
2015-Feb-25 02:33N 38°29' E 121°33'15617.4
2015-Feb-24 17:33N 38°51' E 118°14'1413.9
2015-Feb-24 16:34N 38°57' E 117°58'9 8.7
2015-Feb-24 15:33N 38°60' E 117°47'0 0.0
2015-Feb-24 14:32N 38°60' E 117°47'0 0.0
2015-Feb-24 13:26N 38°60' E 117°47'0 0.0
2015-Feb-24 12:32N 38°60' E 117°47'0 0.0
2015-Feb-24 11:26N 38°60' E 117°47'0 0.0
2015-Feb-24 10:17N 38°60' E 117°47'0 0.0
2015-Feb-24 09:29N 38°60' E 117°47'0 0.0
2015-Feb-24 08:23N 38°60' E 117°47'0 0.0
2015-Feb-24 07:23N 38°60' E 117°47'0 0.0
2015-Feb-24 06:23N 38°60' E 117°47'0 0.0
2015-Feb-24 05:29N 38°60' E 117°47'0 0.0
2015-Feb-24 04:23N 38°60' E 117°47'0 0.0
2015-Feb-24 03:29N 38°60' E 117°47'0 0.0
2015-Feb-24 02:33N 38°60' E 117°47'7 7.4
2015-Feb-24 01:33N 38°57' E 117°56'8 8.1
2015-Feb-24 00:33N 38°56' E 118°07'3 2.3
2015-Feb-23 23:25N 38°55' E 118°10'0 0.4
2015-Feb-23 22:33N 38°55' E 118°09'0 0.1
2015-Feb-23 21:34N 38°55' E 118°09'1412.9
2015-Feb-23 20:27N 38°51' E 118°27'7222.0
2015-Feb-23 17:11N 38°43' E 119°59'7615.5
2015-Feb-23 12:17N 38°16' E 121°29'2020.3
2015-Feb-23 11:19N 38°05' E 121°50'1520.5
2015-Feb-23 10:33N 37°56' E 122°07'2020.3
2015-Feb-23 09:33N 37°44' E 122°27'2019.3
2015-Feb-23 08:31N 37°32' E 122°47'  
Track history (hours):
 
Tides and Currents Weather Stations Pressure Air Temp Water Temp Dewpoint Dewpoint Depression Visibility Wind Speed Wind Dir Waves Ship Positions

Ever Delight

Last reported at 2015-Mar-04 16:06 UTC. Time now 2015-Mar-04 16:54 UTC.
Position N 29°48' E 122°10'.

Type: Cargo ship. MMSI: 351936000.

Date/timePositionNaut miles runAvg speedWind from/ knotsBaromVisibWave heightAir tempDewpointWater temp
2015-Mar-04 16:06N 29°48' E 122°10'0 0.0
2015-Mar-04 15:30N 29°48' E 122°10'0 0.0
2015-Mar-04 13:18N 29°48' E 122°10'0 0.0
2015-Mar-04 10:27N 29°48' E 122°10'0 0.0
2015-Mar-04 09:33N 29°48' E 122°10'0 0.0
2015-Mar-04 06:18N 29°48' E 122°10'0 0.0
2015-Mar-04 01:12N 29°48' E 122°10'0 0.0
2015-Mar-03 21:13N 29°48' E 122°10'0 0.0
2015-Mar-03 16:31N 29°48' E 122°10'0 0.0
2015-Mar-03 11:06N 29°48' E 122°10'0 0.0
2015-Mar-03 10:15N 29°48' E 122°10'0 0.0
2015-Mar-03 09:20N 29°48' E 122°10'0 0.0
2015-Mar-03 08:32N 29°48' E 122°10'0 0.0
2015-Mar-03 07:32N 29°48' E 122°10'0 0.0
2015-Mar-03 06:17N 29°48' E 122°10'0 0.0
2015-Mar-03 05:32N 29°48' E 122°10'0 0.0
2015-Mar-03 04:32N 29°48' E 122°10'0 0.0
2015-Mar-03 03:26N 29°48' E 122°10'0 0.0
2015-Mar-03 02:32N 29°48' E 122°10'0 0.0
2015-Mar-03 01:32N 29°48' E 122°10'0 0.0
2015-Mar-03 00:32N 29°48' E 122°10'0 0.0
2015-Mar-02 23:32N 29°48' E 122°10'0 0.0
2015-Mar-02 22:28N 29°48' E 122°10'0 0.0
2015-Mar-02 21:18N 29°48' E 122°10'0 0.0
2015-Mar-02 20:12N 29°48' E 122°10'0 0.0
2015-Mar-02 19:33N 29°48' E 122°10'0 0.0
2015-Mar-02 16:33N 29°48' E 122°10'2 2.0
2015-Mar-02 15:20N 29°48' E 122°07'0 0.0
2015-Mar-02 12:32N 29°48' E 122°07'0 0.1
2015-Mar-02 10:21N 29°48' E 122°07'0 0.1
2015-Mar-02 09:28N 29°48' E 122°06'0 0.1
2015-Mar-02 08:33N 29°48' E 122°06'7 7.3
2015-Mar-02 07:33N 29°53' E 122°12'0 0.2
2015-Mar-02 06:19N 29°53' E 122°13'0 0.5
2015-Mar-02 05:33N 29°53' E 122°13'9 9.1
2015-Mar-02 04:33N 29°45' E 122°19'1010.4
2015-Mar-02 03:33N 29°42' E 122°30'6 5.7
2015-Mar-02 02:33N 29°43' E 122°24'1110.7
2015-Mar-02 01:33N 29°49' E 122°14'1110.6
2015-Mar-02 00:33N 29°54' E 122°03'1 1.0
2015-Mar-01 23:29N 29°53' E 122°03'0 0.0
2015-Mar-01 22:33N 29°53' E 122°03'0 0.0
2015-Mar-01 21:33N 29°53' E 122°03'0 0.0
2015-Mar-01 20:33N 29°53' E 122°03'0 0.0
2015-Mar-01 19:33N 29°53' E 122°03'0 0.1
2015-Mar-01 18:34N 29°53' E 122°03'0 0.1
2015-Mar-01 17:32N 29°53' E 122°03'0 0.0
2015-Mar-01 16:33N 29°53' E 122°03'0 0.0
2015-Mar-01 15:33N 29°53' E 122°03'0 0.0
2015-Mar-01 14:33N 29°53' E 122°03'0 0.0
2015-Mar-01 13:33N 29°53' E 122°03'0 0.0
2015-Mar-01 12:33N 29°53' E 122°03'0 0.1
2015-Mar-01 11:33N 29°53' E 122°03'0 0.1
2015-Mar-01 10:33N 29°53' E 122°03'3 2.6
2015-Mar-01 09:34N 29°55' E 122°05'1110.6
2015-Mar-01 08:34N 29°48' E 122°15'8 8.1
2015-Mar-01 07:34N 29°44' E 122°23'8 8.1
2015-Mar-01 06:33N 29°42' E 122°32'  
2015-Feb-26 20:26N 35°55' E 120°51'1617.4
2015-Feb-26 19:30N 35°59' E 120°32'1414.3
2015-Feb-26 18:33N 36°02' E 120°16'3 2.8
2015-Feb-26 17:32N 36°01' E 120°13'0 0.0
2015-Feb-26 16:32N 36°01' E 120°13'0 0.0
2015-Feb-26 15:32N 36°01' E 120°13'0 0.0
2015-Feb-26 14:26N 36°01' E 120°13'0 0.0
2015-Feb-26 13:20N 36°01' E 120°13'0 0.0
2015-Feb-26 12:15N 36°01' E 120°13'21 9.7
2015-Feb-26 10:03N 35°58' E 120°39'5 8.6
2015-Feb-26 09:31N 35°57' E 120°44'8917.8
2015-Feb-26 04:33N 36°40' E 122°20'1919.1
2015-Feb-26 03:33N 36°51' E 122°40'1817.6
2015-Feb-26 02:33N 37°07' E 122°48'2019.8
2015-Feb-26 01:32N 37°27' E 122°47'2020.2
2015-Feb-26 00:33N 37°45' E 122°35'7120.7
2015-Feb-25 21:07N 38°49' E 121°56'9 0.6
2015-Feb-25 05:29N 38°58' E 121°56'910.2
2015-Feb-25 04:33N 38°49' E 121°53'1212.2
2015-Feb-25 03:34N 38°38' E 121°46'1413.5
2015-Feb-25 02:33N 38°29' E 121°33'15617.4
2015-Feb-24 17:33N 38°51' E 118°14'1413.9
2015-Feb-24 16:34N 38°57' E 117°58'9 8.7
2015-Feb-24 15:33N 38°60' E 117°47'0 0.0
2015-Feb-24 14:32N 38°60' E 117°47'0 0.0
2015-Feb-24 13:26N 38°60' E 117°47'0 0.0
2015-Feb-24 12:32N 38°60' E 117°47'0 0.0
2015-Feb-24 11:26N 38°60' E 117°47'0 0.0
2015-Feb-24 10:17N 38°60' E 117°47'0 0.0
2015-Feb-24 09:29N 38°60' E 117°47'0 0.0
2015-Feb-24 08:23N 38°60' E 117°47'0 0.0
2015-Feb-24 07:23N 38°60' E 117°47'0 0.0
2015-Feb-24 06:23N 38°60' E 117°47'0 0.0
2015-Feb-24 05:29N 38°60' E 117°47'0 0.0
2015-Feb-24 04:23N 38°60' E 117°47'0 0.0
2015-Feb-24 03:29N 38°60' E 117°47'0 0.0
2015-Feb-24 02:33N 38°60' E 117°47'7 7.4
2015-Feb-24 01:33N 38°57' E 117°56'8 8.1
2015-Feb-24 00:33N 38°56' E 118°07'3 2.3
2015-Feb-23 23:25N 38°55' E 118°10'0 0.4
2015-Feb-23 22:33N 38°55' E 118°09'0 0.1
2015-Feb-23 21:34N 38°55' E 118°09'1412.9
2015-Feb-23 20:27N 38°51' E 118°27'7222.0
2015-Feb-23 17:11N 38°43' E 119°59'7615.5
2015-Feb-23 12:17N 38°16' E 121°29'2020.3
2015-Feb-23 11:19N 38°05' E 121°50'1520.5
2015-Feb-23 10:33N 37°56' E 122°07'2020.3
2015-Feb-23 09:33N 37°44' E 122°27'2019.3
2015-Feb-23 08:31N 37°32' E 122°47'  

Dump ship's entire track history